Time;durP1;ratioP1;P1;durP2;ratioP2;P2;SDS_P1;SDS_P2;PMS_P1;PMS_P2;Temp;Humidity;BMP_temperature;BMP_pressure;BME280_temperature;BME280_humidity;BME280_pressure;Samples;Min_cycle;Max_cycle;Signal;HPM_P1;HPM_P2
2021/11/13 00:02:09;;;;;;;13.77;7.90;;;8.00;99.90;;;8.75;85.23;100060.38;5106555;28;20028;-85
2021/11/13 00:04:35;;;;;;;14.60;7.85;;;8.00;99.90;;;8.76;85.68;100064.78;5087423;28;20039;-83
2021/11/13 00:07:00;;;;;;;12.45;8.38;;;8.00;99.90;;;8.81;85.47;100081.19;5086974;28;20063;-84
2021/11/13 00:09:26;;;;;;;13.05;8.82;;;8.00;99.90;;;8.93;85.38;100091.41;5093404;28;20063;-83
2021/11/13 00:11:52;;;;;;;13.43;8.27;;;8.00;99.90;;;8.90;85.68;100090.16;5083074;28;20028;-85
2021/11/13 00:14:20;;;;;;;13.50;7.97;;;7.90;99.90;;;8.93;85.36;100092.22;5082988;28;20080;-85
2021/11/13 00:16:47;;;;;;;13.35;8.57;;;7.90;99.90;;;8.90;86.46;100097.72;5083699;28;20025;-84
2021/11/13 00:19:12;;;;;;;12.77;7.95;;;7.90;99.90;;;8.94;86.19;100093.88;5085000;28;20513;-83
2021/11/13 00:21:39;;;;;;;13.10;8.23;;;8.00;99.90;;;8.80;87.46;100096.28;5066169;28;20054;-85
2021/11/13 00:24:07;;;;;;;15.05;8.65;;;8.10;99.90;;;8.82;87.60;100096.75;5085200;28;20088;-83
2021/11/13 00:26:33;;;;;;;15.60;8.80;;;8.00;99.90;;;8.87;87.85;100088.09;5084669;28;20033;-81
2021/11/13 00:29:00;;;;;;;12.18;8.07;;;8.00;99.90;;;8.81;87.92;100100.69;5085082;28;20017;-84
2021/11/13 00:31:25;;;;;;;13.43;8.27;;;8.00;99.90;;;8.76;88.31;100098.19;5066009;28;20024;-81
2021/11/13 00:33:51;;;;;;;16.67;8.95;;;8.00;99.90;;;8.55;88.92;100083.72;5085988;28;20082;-81
2021/11/13 00:36:17;;;;;;;11.68;7.43;;;7.90;99.90;;;8.71;88.83;100087.31;5075308;28;20028;-82
2021/11/13 00:38:44;;;;;;;14.23;9.10;;;8.00;99.90;;;8.53;89.58;100080.47;5087578;28;20024;-84
2021/11/13 00:41:10;;;;;;;16.92;10.00;;;7.90;99.90;;;8.68;89.15;100079.66;5083549;28;20060;-83
2021/11/13 00:43:36;;;;;;;16.38;10.00;;;7.90;99.90;;;8.61;89.86;100076.69;5082831;28;20035;-84
2021/11/13 00:46:02;;;;;;;14.20;7.93;;;7.90;99.90;;;8.59;89.70;100072.66;5065237;28;20043;-85
2021/11/13 00:48:28;;;;;;;14.07;8.45;;;7.90;99.90;;;8.60;89.52;100069.53;5083078;28;20029;-86
2021/11/13 00:50:54;;;;;;;13.52;8.15;;;7.90;99.90;;;8.55;90.07;100068.97;5065120;28;20081;-84
2021/11/13 00:53:20;;;;;;;13.45;8.88;;;7.90;99.90;;;8.63;89.36;100074.38;5064407;28;20040;-85
2021/11/13 00:55:46;;;;;;;14.20;8.10;;;7.90;99.90;;;8.59;89.31;100067.91;5055141;23;20566;-83
2021/11/13 00:58:12;;;;;;;13.30;7.80;;;7.90;99.90;;;8.61;89.02;100068.34;5039163;28;20085;-81
2021/11/13 01:00:38;;;;;;;15.07;9.20;;;7.90;99.90;;;8.62;89.40;100074.72;5039655;28;20385;-79
2021/11/13 01:03:04;;;;;;;18.17;9.15;;;7.90;99.90;;;8.62;89.39;100069.97;5038487;28;20139;-82
2021/11/13 01:05:31;;;;;;;14.63;8.55;;;7.90;99.90;;;8.76;88.41;100073.13;5039225;28;20536;-82
2021/11/13 01:07:58;;;;;;;13.20;8.35;;;7.90;99.90;;;8.77;87.82;100065.56;5039369;28;20052;-84
2021/11/13 01:10:23;;;;;;;12.88;7.82;;;8.00;99.90;;;8.85;87.14;100065.41;5037109;28;20401;-83
2021/11/13 01:12:50;;;;;;;14.73;8.35;;;8.00;99.90;;;8.74;87.60;100053.16;5038278;28;20034;-81
2021/11/13 01:15:20;;;;;;;13.32;8.35;;;8.00;99.90;;;8.68;87.49;100060.19;5021493;28;20049;-84
2021/11/13 01:17:47;;;;;;;13.73;8.50;;;8.00;99.90;;;8.70;87.30;100052.28;5005752;28;20109;-84
2021/11/13 01:20:16;;;;;;;12.75;8.35;;;8.00;99.90;;;8.73;87.77;100051.53;5022820;28;20064;-83
2021/11/13 01:22:45;;;;;;;15.50;9.35;;;8.00;99.90;;;8.79;87.43;100044.56;5021447;28;20055;-82
2021/11/13 01:25:11;;;;;;;14.95;8.60;;;8.00;99.90;;;8.71;88.21;100044.72;5021226;28;20029;-80
2021/11/13 01:27:37;;;;;;;16.00;8.63;;;8.00;99.90;;;8.77;88.07;100044.09;5038280;28;20032;-80
2021/11/13 01:30:07;;;;;;;11.23;8.13;;;8.00;99.90;;;8.84;87.68;100035.91;5039099;28;20068;-80
2021/11/13 01:32:34;;;;;;;13.65;8.60;;;8.00;99.90;;;8.75;88.03;100042.84;5040079;28;20052;-79
2021/11/13 01:35:00;;;;;;;13.02;8.15;;;8.00;99.90;;;8.82;88.19;100032.69;5037177;28;20112;-82
2021/11/13 01:37:26;;;;;;;12.55;7.70;;;8.10;99.90;;;8.80;88.31;100029.44;5038240;28;20366;-83
2021/11/13 01:39:52;;;;;;;12.13;8.35;;;8.10;99.90;;;8.74;88.49;100018.94;5040823;28;20037;-83
2021/11/13 01:42:18;;;;;;;14.38;8.43;;;8.10;99.90;;;8.75;88.66;100013.03;5038687;28;20030;-84
2021/11/13 01:44:44;;;;;;;13.60;8.07;;;8.10;99.90;;;8.75;88.79;100003.88;5038320;28;20029;-82
2021/11/13 01:47:10;;;;;;;14.73;7.38;;;8.10;99.90;;;8.63;89.05;100002.00;5039049;28;20053;-81
2021/11/13 01:49:37;;;;;;;12.73;7.68;;;8.10;99.90;;;8.59;89.22;99995.53;5039066;28;20025;-82
2021/11/13 01:52:15;;;;;;;13.48;8.13;;;8.00;99.90;;;8.50;89.77;99994.94;5050636;28;20082;-83
2021/11/13 01:54:44;;;;;;;14.63;8.10;;;7.90;99.90;;;8.43;89.92;99987.22;5027599;28;20041;-84
2021/11/13 01:57:20;;;;;;;15.75;8.73;;;7.80;99.90;;;8.47;90.03;99990.09;4976721;28;20033;-86
2021/11/13 01:59:51;;;;;;;13.18;8.23;;;7.70;99.90;;;8.43;90.04;99983.59;5042845;28;20037;-84
2021/11/13 02:02:18;;;;;;;14.35;8.27;;;7.70;99.90;;;8.41;90.47;99985.97;5041047;28;20071;-82
2021/11/13 02:04:45;;;;;;;15.27;8.05;;;7.80;99.90;;;8.41;90.23;99974.81;5040074;28;20545;-82
2021/11/13 02:07:11;;;;;;;14.63;8.38;;;7.80;99.90;;;8.41;90.44;99972.81;5040261;28;20022;-83
2021/11/13 02:09:37;;;;;;;16.80;8.27;;;7.80;99.90;;;8.46;90.42;99969.78;5011246;28;20033;-82
2021/11/13 02:12:04;;;;;;;14.60;8.93;;;7.90;99.90;;;8.55;90.08;99974.34;5001760;28;20026;-85
2021/11/13 02:14:30;;;;;;;16.95;9.05;;;7.90;99.90;;;8.60;89.69;99969.34;5002231;28;20036;-82
2021/11/13 02:16:57;;;;;;;14.30;7.65;;;8.00;99.90;;;8.59;90.10;99967.72;5002191;28;20491;-83
2021/11/13 02:19:23;;;;;;;18.23;9.27;;;8.00;99.90;;;8.61;89.80;99968.13;5020402;28;20029;-82
2021/11/13 02:21:52;;;;;;;15.13;9.18;;;8.00;99.90;;;8.59;89.99;99955.75;5019452;28;20034;-81
2021/11/13 02:24:18;;;;;;;15.95;8.90;;;8.00;99.90;;;8.51;90.25;99959.56;5001620;28;20030;-83
2021/11/13 02:26:43;;;;;;;15.90;8.38;;;8.00;99.90;;;8.61;89.97;99954.22;5018321;28;20025;-86
2021/11/13 02:29:09;;;;;;;14.73;8.80;;;8.00;99.90;;;8.65;90.16;99957.09;4999762;28;20052;-83
2021/11/13 02:31:44;;;;;;;15.63;9.20;;;8.00;99.90;;;8.63;90.41;99940.78;5017314;28;20025;-82
2021/11/13 02:34:13;;;;;;;14.32;9.32;;;8.10;99.90;;;8.66;90.37;99942.81;5000229;28;20029;-83
2021/11/13 02:36:40;;;;;;;13.80;8.55;;;8.00;99.90;;;8.80;90.19;99940.34;4999291;28;20046;-82
2021/11/13 02:39:13;;;;;;;16.88;9.57;;;8.00;99.90;;;8.69;90.63;99935.72;4999917;28;20034;-84
2021/11/13 02:41:43;;;;;;;15.07;8.75;;;8.00;99.90;;;8.71;90.68;99939.75;5018217;28;20034;-84
2021/11/13 02:44:11;;;;;;;16.15;8.38;;;8.10;99.90;;;8.69;91.43;99938.50;5003251;28;20081;-80
2021/11/13 02:46:40;;;;;;;18.70;9.63;;;8.00;99.90;;;8.75;90.75;99934.28;5001865;28;20025;-81
2021/11/13 02:49:07;;;;;;;18.50;9.27;;;8.00;99.90;;;8.81;90.97;99930.84;4970652;28;20485;-84
2021/11/13 02:51:34;;;;;;;15.82;9.52;;;8.00;99.90;;;8.77;91.24;99934.69;5019826;28;20491;-83
2021/11/13 02:54:01;;;;;;;19.15;8.70;;;8.00;99.90;;;8.78;91.50;99934.34;5005757;28;20034;-84
2021/11/13 02:56:27;;;;;;;17.05;8.77;;;8.00;99.90;;;8.81;91.37;99927.25;5006556;28;20041;-84
2021/11/13 02:58:53;;;;;;;16.33;8.98;;;8.10;99.90;;;8.93;91.17;99935.47;5022398;28;20029;-83
2021/11/13 03:01:24;;;;;;;15.82;8.00;;;8.10;99.90;;;8.90;91.11;99934.22;5021500;28;20029;-83
2021/11/13 03:03:55;;;;;;;17.70;8.38;;;8.10;99.90;;;9.00;90.74;99927.25;5032863;28;20044;-81
2021/11/13 03:06:22;;;;;;;20.70;9.85;;;8.10;99.90;;;8.80;92.30;99929.22;5043390;28;20034;-81
2021/11/13 03:08:53;;;;;;;18.92;9.90;;;8.10;99.90;;;9.01;91.12;99934.47;5035021;28;20057;-82
2021/11/13 03:11:22;;;;;;;17.40;8.52;;;8.20;99.90;;;8.93;91.99;99927.91;5020623;28;20046;-84
2021/11/13 03:13:52;;;;;;;16.42;8.45;;;8.20;99.90;;;9.08;91.41;99928.25;5018278;28;20485;-81
2021/11/13 03:16:21;;;;;;;13.10;8.18;;;8.20;99.90;;;8.97;91.91;99933.56;5003519;28;20033;-82
2021/11/13 03:18:48;;;;;;;15.75;8.55;;;8.20;99.90;;;8.97;92.23;99936.34;5020182;28;20038;-82
2021/11/13 03:21:15;;;;;;;17.20;8.93;;;8.20;99.90;;;9.09;91.51;99936.22;5020282;28;20045;-82
2021/11/13 03:23:45;;;;;;;18.13;8.75;;;8.30;99.90;;;9.18;91.58;99933.22;5019984;28;20042;-82
2021/11/13 03:26:23;;;;;;;17.58;8.98;;;8.30;99.90;;;9.14;91.62;99933.16;5005707;28;20061;-84
2021/11/13 03:28:57;;;;;;;18.08;8.98;;;8.30;99.90;;;9.17;91.61;99931.63;5024808;28;20029;-82
2021/11/13 03:31:24;;;;;;;15.85;8.50;;;8.30;99.90;;;9.24;91.49;99937.34;5024453;28;20026;-81
2021/11/13 03:33:51;;;;;;;19.27;7.70;;;8.30;99.90;;;9.09;92.82;99938.19;5026013;28;20119;-85
2021/11/13 03:36:20;;;;;;;15.70;8.63;;;8.40;99.90;;;8.99;94.31;99939.56;5026811;28;20031;-81
2021/11/13 03:38:48;;;;;;;18.65;8.05;;;8.30;99.90;;;9.07;95.30;99937.75;5025364;28;20046;-84
2021/11/13 03:41:20;;;;;;;19.98;9.25;;;8.20;99.90;;;8.96;95.98;99934.72;5026071;28;20038;-84
2021/11/13 03:43:48;;;;;;;15.55;8.98;;;8.20;99.90;;;8.94;97.22;99939.88;5028208;28;20037;-83
2021/11/13 03:46:15;;;;;;;15.65;8.80;;;8.10;99.90;;;8.80;98.52;99945.09;5027036;28;20025;-84
2021/11/13 03:48:42;;;;;;;16.85;9.57;;;8.10;99.90;;;8.73;100.00;99939.41;5026041;28;20034;-82
2021/11/13 03:51:09;;;;;;;18.90;9.52;;;8.00;99.90;;;8.78;100.00;99937.13;5023638;28;20052;-82
2021/11/13 03:53:35;;;;;;;18.50;9.45;;;8.00;99.90;;;8.73;100.00;99937.41;5020638;28;20032;-81
2021/11/13 03:56:02;;;;;;;18.85;10.10;;;7.90;99.90;;;8.66;100.00;99942.00;5018980;28;20061;-80
2021/11/13 03:58:28;;;;;;;21.92;10.73;;;7.90;99.90;;;8.42;100.00;99938.28;5020550;28;20025;-82
2021/11/13 04:00:54;;;;;;;21.58;9.88;;;7.80;99.90;;;8.45;100.00;99932.00;5003954;28;20164;-80
2021/11/13 04:03:20;;;;;;;21.35;10.63;;;7.70;99.90;;;8.46;100.00;99930.81;5004029;28;20037;-83
2021/11/13 04:05:46;;;;;;;20.02;9.93;;;7.70;99.90;;;8.30;100.00;99929.22;5020348;28;20022;-80
2021/11/13 04:08:13;;;;;;;24.25;11.55;;;7.60;99.90;;;8.19;100.00;99930.88;5004150;28;20026;-82
2021/11/13 04:10:39;;;;;;;20.77;10.93;;;7.60;99.90;;;8.29;100.00;99931.19;5039996;28;20044;-81
2021/11/13 04:13:07;;;;;;;20.23;11.13;;;7.60;99.90;;;8.29;100.00;99936.75;5041888;28;20499;-83
2021/11/13 04:15:34;;;;;;;25.20;11.48;;;7.50;99.90;;;8.21;100.00;99928.56;5041742;28;20034;-83
2021/11/13 04:18:01;;;;;;;25.38;12.05;;;7.50;99.90;;;8.16;100.00;99929.63;5025530;28;20029;-82
2021/11/13 04:20:27;;;;;;;26.13;12.13;;;7.50;99.90;;;8.14;100.00;99923.63;5043051;28;20045;-80
2021/11/13 04:22:53;;;;;;;23.75;12.98;;;7.50;99.90;;;8.03;100.00;99930.13;5043152;28;20033;-81
2021/11/13 04:25:20;;;;;;;23.25;12.25;;;7.40;99.90;;;8.17;100.00;99925.69;5041401;28;20032;-82
2021/11/13 04:27:51;;;;;;;27.38;13.15;;;7.40;99.90;;;8.10;100.00;99935.84;5026653;28;20044;-84
2021/11/13 04:30:18;;;;;;;24.08;13.15;;;7.40;99.90;;;8.13;100.00;99922.00;5025338;28;20588;-80
2021/11/13 04:32:49;;;;;;;28.55;13.10;;;7.40;99.90;;;8.05;100.00;99927.78;5040136;28;20033;-81
2021/11/13 04:35:34;;;;;;;23.88;12.45;;;7.50;99.90;;;8.10;100.00;99933.88;5045772;28;20036;-82
2021/11/13 04:38:03;;;;;;;22.75;12.80;;;7.40;99.90;;;8.01;100.00;99927.69;5030869;28;20037;-84
2021/11/13 04:40:36;;;;;;;22.35;14.02;;;7.40;99.90;;;8.04;100.00;99928.94;5044090;28;20076;-80
2021/11/13 04:43:03;;;;;;;24.17;12.05;;;7.40;99.90;;;8.07;100.00;99936.56;5045863;28;20025;-83
2021/11/13 04:45:30;;;;;;;26.00;13.65;;;7.40;99.90;;;8.14;100.00;99932.00;5031055;28;20049;-84
2021/11/13 04:47:56;;;;;;;25.08;12.80;;;7.40;99.90;;;8.17;100.00;99934.03;5046681;28;20025;-82
2021/11/13 04:50:27;;;;;;;23.02;12.75;;;7.40;99.90;;;8.18;100.00;99940.44;5044450;28;20029;-83
2021/11/13 04:52:55;;;;;;;25.92;12.95;;;7.40;99.90;;;8.15;100.00;99930.00;5026511;28;20030;-84
2021/11/13 04:55:22;;;;;;;27.15;12.73;;;7.40;99.90;;;8.23;100.00;99929.00;5025969;28;20033;-81
2021/11/13 04:57:50;;;;;;;23.58;12.77;;;7.40;99.90;;;8.10;100.00;99931.06;5043521;28;20034;-82
2021/11/13 05:00:22;;;;;;;25.67;13.50;;;7.40;99.90;;;8.25;100.00;99935.03;5041414;28;20395;-83
2021/11/13 05:02:49;;;;;;;22.90;12.75;;;7.40;99.90;;;8.14;100.00;99940.34;5026497;28;20030;-83
2021/11/13 05:05:15;;;;;;;21.67;12.48;;;7.40;99.90;;;8.21;100.00;99928.56;5025407;28;20060;-82
2021/11/13 05:07:41;;;;;;;22.63;12.60;;;7.40;99.90;;;8.25;100.00;99932.25;5040884;28;20433;-83
2021/11/13 05:10:09;;;;;;;26.02;13.38;;;7.50;99.90;;;8.23;100.00;99940.13;5025913;28;20044;-84
2021/11/13 05:12:36;;;;;;;25.27;12.52;;;7.50;99.90;;;8.23;100.00;99931.78;5021946;28;20026;-81
2021/11/13 05:15:04;;;;;;;22.35;11.93;;;7.50;99.90;;;8.33;100.00;99942.41;5021413;28;20038;-82
2021/11/13 05:17:30;;;;;;;19.70;11.70;;;7.50;99.90;;;8.25;100.00;99946.94;4987309;28;20477;-83
2021/11/13 05:19:57;;;;;;;21.23;11.40;;;7.50;99.90;;;8.29;100.00;99949.84;5002808;28;20120;-79
2021/11/13 05:22:23;;;;;;;24.13;11.35;;;7.50;99.90;;;8.26;100.00;99950.53;5002214;28;20061;-81
2021/11/13 05:24:49;;;;;;;22.63;11.77;;;7.50;99.90;;;8.35;100.00;99953.97;5019936;28;20034;-84
2021/11/13 05:27:16;;;;;;;19.60;11.50;;;7.50;99.90;;;8.37;100.00;99944.13;5020154;28;20500;-81
2021/11/13 05:29:42;;;;;;;23.13;11.80;;;7.50;99.90;;;8.33;100.00;99943.22;5019664;28;20034;-82
2021/11/13 05:32:10;;;;;;;25.23;11.50;;;7.60;99.90;;;8.34;100.00;99944.03;5031345;28;20099;-83
2021/11/13 05:34:36;;;;;;;18.92;9.85;;;7.60;99.90;;;8.39;100.00;99943.75;5032791;28;20056;-83
2021/11/13 05:37:03;;;;;;;20.95;10.88;;;7.60;99.90;;;8.42;100.00;99954.97;5026206;28;20037;-83
2021/11/13 05:39:29;;;;;;;17.42;10.07;;;7.60;99.90;;;8.36;100.00;99950.03;5009380;28;20151;-80
2021/11/13 05:41:54;;;;;;;16.33;10.07;;;7.60;99.90;;;8.31;100.00;99948.34;5026109;28;20036;-82
2021/11/13 05:44:20;;;;;;;16.77;9.45;;;7.60;99.90;;;8.27;100.00;99961.31;5025951;28;20049;-83
2021/11/13 05:46:50;;;;;;;18.33;10.27;;;7.50;99.90;;;8.33;100.00;99950.75;5006889;28;20117;-81
2021/11/13 05:49:16;;;;;;;16.63;10.02;;;7.60;99.90;;;8.19;100.00;99950.38;5020598;28;20050;-82
2021/11/13 05:51:42;;;;;;;16.80;9.30;;;7.50;99.90;;;8.26;100.00;99951.34;5023788;28;20022;-81
2021/11/13 05:54:08;;;;;;;15.55;9.25;;;7.50;99.90;;;8.16;100.00;99948.28;5021857;28;20040;-82
2021/11/13 05:56:34;;;;;;;15.38;8.57;;;7.50;99.90;;;8.17;100.00;99947.97;5003055;28;20040;-81
2021/11/13 05:59:00;;;;;;;14.95;8.35;;;7.50;99.90;;;8.15;100.00;99955.88;5021246;28;20033;-83
2021/11/13 06:01:26;;;;;;;15.32;8.02;;;7.50;99.90;;;8.34;100.00;99961.53;5019648;28;20041;-82
2021/11/13 06:03:52;;;;;;;17.05;8.02;;;7.50;99.90;;;8.20;100.00;99952.81;5020017;28;20034;-81
2021/11/13 06:06:18;;;;;;;13.68;8.25;;;7.50;99.90;;;8.18;100.00;99962.69;5002300;28;20030;-82
2021/11/13 06:08:44;;;;;;;13.85;7.78;;;7.50;99.90;;;8.25;100.00;99955.28;5024357;28;20096;-78
2021/11/13 06:11:10;;;;;;;12.98;8.05;;;7.50;99.90;;;8.23;100.00;99954.88;5039609;28;20026;-80
2021/11/13 06:13:37;;;;;;;12.30;7.75;;;7.50;99.90;;;8.16;100.00;99951.09;5037280;28;20029;-81
2021/11/13 06:16:06;;;;;;;12.02;8.15;;;7.50;99.90;;;8.06;100.00;99960.78;5038196;28;20033;-82
2021/11/13 06:18:32;;;;;;;12.75;7.53;;;7.40;99.90;;;8.08;100.00;99958.47;5005432;28;20033;-82
2021/11/13 06:20:58;;;;;;;12.18;7.13;;;7.40;99.90;;;7.96;100.00;99953.75;5037351;28;20505;-81
2021/11/13 06:23:26;;;;;;;13.32;8.43;;;7.40;99.90;;;7.95;100.00;99962.47;5038215;28;20034;-80
2021/11/13 06:25:52;;;;;;;11.98;8.07;;;7.40;99.90;;;8.06;100.00;99962.75;5020498;28;20029;-79
2021/11/13 06:28:18;;;;;;;13.07;8.05;;;7.40;99.90;;;7.99;100.00;99982.03;5045982;28;20036;-81
2021/11/13 06:30:44;;;;;;;9.68;7.22;;;7.30;99.90;;;7.92;100.00;99979.88;5053108;28;20057;-81
2021/11/13 06:33:10;;;;;;;12.52;7.47;;;7.30;99.90;;;8.10;100.00;99972.81;5052006;28;20022;-81
2021/11/13 06:35:36;;;;;;;11.80;7.60;;;7.40;99.90;;;8.08;100.00;99968.78;5051571;28;20452;-80
2021/11/13 06:38:03;;;;;;;12.45;7.53;;;7.40;99.90;;;8.08;100.00;99982.69;5053387;28;20033;-81
2021/11/13 06:40:29;;;;;;;12.95;7.90;;;7.40;99.90;;;8.14;100.00;99979.28;5034405;28;20093;-83
2021/11/13 06:42:55;;;;;;;13.30;7.15;;;7.40;99.90;;;8.18;100.00;99984.94;5049504;28;20195;-83
2021/11/13 06:45:21;;;;;;;10.77;7.13;;;7.40;99.90;;;8.21;100.00;99982.25;5046650;28;20048;-82
2021/11/13 06:47:48;;;;;;;10.50;7.13;;;7.40;99.90;;;8.20;100.00;99975.06;5044125;28;20030;-81
2021/11/13 06:50:14;;;;;;;10.80;7.07;;;7.50;99.90;;;8.18;100.00;99985.75;5044133;28;20025;-82
2021/11/13 06:52:41;;;;;;;10.30;7.22;;;7.50;99.90;;;8.28;100.00;99990.78;5044257;28;20071;-83
2021/11/13 06:55:09;;;;;;;14.35;7.22;;;7.50;99.90;;;8.26;100.00;99990.31;5060118;22;20045;-80
2021/11/13 06:57:38;;;;;;;11.10;7.03;;;7.50;99.90;;;8.33;100.00;99993.31;5056361;28;20025;-79
2021/11/13 07:00:16;;;;;;;11.00;6.88;;;7.50;99.90;;;8.31;100.00;100005.97;5055805;28;20086;-80
2021/11/13 07:02:45;;;;;;;10.07;6.70;;;7.60;99.90;;;8.36;100.00;100002.91;5057308;28;20124;-80
2021/11/13 07:05:11;;;;;;;9.50;6.30;;;7.60;99.90;;;8.22;100.00;100010.88;5058130;28;20571;-81
2021/11/13 07:07:39;;;;;;;11.10;7.13;;;7.60;99.90;;;8.26;100.00;100009.78;5040810;28;20059;-78
2021/11/13 07:10:12;;;;;;;9.27;6.10;;;7.60;99.90;;;8.32;100.00;100013.94;5057059;28;20495;-81
2021/11/13 07:12:40;;;;;;;10.40;6.20;;;7.60;99.90;;;8.37;100.00;100012.88;5077416;28;20028;-80
2021/11/13 07:15:09;;;;;;;11.52;5.70;;;7.60;99.90;;;8.35;100.00;100023.53;5078444;28;20043;-80
2021/11/13 07:17:35;;;;;;;9.55;6.32;;;7.60;99.90;;;8.31;100.00;100020.69;5079788;28;20050;-79
2021/11/13 07:20:05;;;;;;;10.30;6.10;;;7.60;99.90;;;8.34;100.00;100027.50;5063047;28;20091;-82
2021/11/13 07:22:31;;;;;;;9.00;6.38;;;7.60;99.90;;;8.34;100.00;100024.72;5064102;28;20446;-83
2021/11/13 07:24:59;;;;;;;9.75;6.05;;;7.60;99.90;;;8.36;100.00;100020.41;5062003;28;20082;-80
2021/11/13 07:27:25;;;;;;;9.77;6.03;;;7.70;99.90;;;8.48;100.00;100022.28;5061537;28;20054;-80
2021/11/13 07:30:02;;;;;;;8.82;5.85;;;7.70;99.90;;;8.47;100.00;100029.03;5062343;28;20033;-83
2021/11/13 07:32:30;;;;;;;10.20;5.93;;;7.70;99.90;;;8.55;100.00;100030.81;5077592;28;20036;-79
2021/11/13 07:34:58;;;;;;;8.75;5.68;;;7.80;99.90;;;8.55;100.00;100035.56;5075634;28;20028;-81
2021/11/13 07:37:26;;;;;;;10.38;6.05;;;7.80;99.90;;;8.52;100.00;100036.28;5054075;28;20032;-79
2021/11/13 07:39:55;;;;;;;11.48;6.72;;;7.80;99.90;;;8.52;100.00;100041.88;5069931;28;20063;-84
2021/11/13 07:42:21;;;;;;;8.50;5.70;;;7.80;99.90;;;8.53;100.00;100040.69;5080982;28;20039;-81
2021/11/13 07:44:49;;;;;;;11.10;6.55;;;7.80;99.90;;;8.50;100.00;100039.44;5085458;28;20025;-81
2021/11/13 07:47:16;;;;;;;8.75;6.30;;;7.80;99.90;;;8.61;100.00;100042.47;5068823;28;20050;-84
2021/11/13 07:49:42;;;;;;;8.88;7.00;;;7.80;99.90;;;8.67;100.00;100049.44;5083939;28;20510;-84
2021/11/13 07:52:08;;;;;;;12.63;7.18;;;7.90;99.90;;;8.69;100.00;100047.88;5059952;28;20107;-82
2021/11/13 07:54:35;;;;;;;13.65;7.20;;;7.90;99.90;;;8.60;100.00;100047.28;5076774;28;20025;-82
2021/11/13 07:57:06;;;;;;;10.50;7.18;;;7.90;99.90;;;8.70;100.00;100046.69;5068136;28;20043;-85
2021/11/13 07:59:32;;;;;;;9.73;6.40;;;8.00;99.90;;;8.79;100.00;100047.34;5070636;28;20376;-84
2021/11/13 08:01:58;;;;;;;10.75;7.10;;;8.00;99.90;;;8.86;100.00;100049.50;5083190;28;20028;-82
2021/11/13 08:04:24;;;;;;;9.20;6.63;;;8.00;99.90;;;8.94;100.00;100054.88;5083932;28;20043;-81
2021/11/13 08:06:50;;;;;;;11.68;7.20;;;8.10;99.90;;;8.84;100.00;100049.03;5060322;28;20037;-78
2021/11/13 08:09:17;;;;;;;10.52;6.72;;;8.10;99.90;;;8.91;100.00;100052.00;5075451;28;20117;-81
2021/11/13 08:11:43;;;;;;;10.55;6.78;;;8.20;99.90;;;8.97;100.00;100048.56;5051086;28;20055;-82
2021/11/13 08:14:10;;;;;;;10.88;7.20;;;8.20;99.90;;;8.94;100.00;100052.09;5059221;28;20028;-82
2021/11/13 08:16:36;;;;;;;12.40;7.28;;;8.20;99.90;;;8.93;100.00;100044.06;5057440;28;20067;-79
2021/11/13 08:19:03;;;;;;;15.23;7.05;;;8.20;99.90;;;8.95;100.00;100053.72;5043729;28;20032;-77
2021/11/13 08:21:30;;;;;;;11.82;6.95;;;8.30;99.90;;;8.95;100.00;100048.13;5071540;28;20059;-80
2021/11/13 08:23:58;;;;;;;13.27;7.97;;;8.30;99.90;;;9.08;100.00;100050.81;5044573;28;20025;-81
2021/11/13 08:26:25;;;;;;;10.68;7.25;;;8.30;99.90;;;9.15;100.00;100059.34;5060854;28;20036;-78
2021/11/13 08:28:51;;;;;;;10.63;7.25;;;8.30;99.90;;;9.15;100.00;100053.75;5059372;28;20104;-82
2021/11/13 08:31:17;;;;;;;11.45;7.32;;;8.40;99.90;;;9.22;100.00;100053.91;5056590;28;20074;-81
2021/11/13 08:33:43;;;;;;;12.73;7.90;;;8.40;99.90;;;9.17;100.00;100052.22;5055713;28;20056;-80
2021/11/13 08:36:09;;;;;;;11.38;7.15;;;8.40;99.90;;;9.25;100.00;100058.75;5055919;28;20033;-79
2021/11/13 08:38:34;;;;;;;12.27;7.18;;;8.40;99.90;;;9.21;100.00;100055.09;5038185;28;20028;-81
2021/11/13 08:41:03;;;;;;;11.20;7.53;;;8.40;99.90;;;9.20;100.00;100053.47;5056464;28;20447;-81
2021/11/13 08:43:29;;;;;;;11.57;8.00;;;8.50;99.90;;;9.30;100.00;100058.47;5052429;28;20061;-80
2021/11/13 08:45:55;;;;;;;11.70;7.57;;;8.50;99.90;;;9.37;100.00;100050.28;5054360;28;20064;-79
2021/11/13 08:48:21;;;;;;;10.75;7.32;;;8.50;99.90;;;9.42;100.00;100055.56;5053288;28;20033;-82
2021/11/13 08:50:48;;;;;;;10.23;6.43;;;8.60;99.90;;;9.51;100.00;100051.38;5021355;28;20032;-80
2021/11/13 08:53:14;;;;;;;10.00;6.57;;;8.60;99.90;;;9.44;100.00;100056.00;5053721;28;20074;-81
2021/11/13 08:55:43;;;;;;;9.98;6.38;;;8.70;99.90;;;9.44;100.00;100061.56;5053495;28;20080;-80
2021/11/13 08:58:11;;;;;;;9.95;6.22;;;8.70;99.90;;;9.52;100.00;100063.34;5036364;28;20391;-80
2021/11/13 09:00:54;;;;;;;11.20;6.72;;;8.70;99.90;;;9.60;100.00;100065.09;5053449;28;20435;-77
2021/11/13 09:03:38;;;;;;;8.02;5.68;;;8.80;99.90;;;9.67;100.00;100062.47;5054009;28;20424;-80
2021/11/13 09:06:14;;;;;;;8.60;5.75;;;8.80;99.90;;;9.61;100.00;100058.38;5023279;28;20531;-80
2021/11/13 09:08:47;;;;;;;11.50;6.32;;;8.90;99.90;;;9.70;100.00;100064.53;5052377;28;20056;-80
2021/11/13 09:11:21;;;;;;;7.80;5.70;;;8.90;99.90;;;9.68;100.00;100058.53;5053603;28;20124;-79
2021/11/13 09:13:49;;;;;;;7.43;5.07;;;8.90;99.90;;;9.72;100.00;100070.56;5036366;28;20046;-82
2021/11/13 09:16:19;;;;;;;10.30;5.35;;;8.90;99.90;;;9.58;100.00;100061.06;5036054;28;20040;-79
2021/11/13 09:18:45;;;;;;;8.20;5.75;;;8.90;99.90;;;9.75;100.00;100071.81;5054071;28;20426;-82
2021/11/13 09:21:13;;;;;;;7.85;5.72;;;8.90;99.90;;;9.76;100.00;100071.44;5053454;28;20033;-81
2021/11/13 09:23:41;;;;;;;9.27;5.82;;;8.90;99.90;;;9.68;100.00;100069.69;5034425;28;20106;-83
2021/11/13 09:26:10;;;;;;;10.10;5.35;;;8.90;99.90;;;9.68;100.00;100080.84;5053816;28;20500;-80
2021/11/13 09:28:37;;;;;;;9.63;5.95;;;8.90;99.90;;;9.67;100.00;100079.19;5053885;28;20100;-79
2021/11/13 09:31:05;;;;;;;9.00;5.50;;;8.90;99.90;;;9.69;100.00;100082.47;5053921;28;20025;-78
2021/11/13 09:33:33;;;;;;;8.10;5.40;;;8.90;99.90;;;9.71;100.00;100080.09;5053207;28;20361;-80
2021/11/13 09:36:00;;;;;;;8.18;5.72;;;8.90;99.90;;;9.63;100.00;100081.13;5018886;28;20067;-80
2021/11/13 09:38:36;;;;;;;6.78;5.05;;;8.90;99.90;;;9.72;100.00;100092.06;5051833;28;20039;-77
2021/11/13 09:41:06;;;;;;;;;;;8.90;99.90;;;9.79;100.00;100092.22;5036244;28;20033;-82
2021/11/13 09:43:35;;;;;;;7.97;4.85;;;8.90;99.90;;;9.74;100.00;100084.94;5036746;28;19916;-79
2021/11/13 09:46:07;;;;;;;7.43;4.78;;;8.90;99.90;;;9.75;100.00;100094.94;5035915;28;20099;-80
2021/11/13 09:48:35;;;;;;;10.00;6.18;;;8.90;99.90;;;9.71;100.00;100093.22;5019881;28;20088;-82
2021/11/13 09:51:05;;;;;;;7.85;5.10;;;8.90;99.90;;;9.57;100.00;100084.56;5019122;28;20060;-80
2021/11/13 09:53:32;;;;;;;8.00;4.85;;;8.90;99.90;;;9.68;100.00;100091.97;5020037;28;20029;-80
2021/11/13 09:56:00;;;;;;;7.60;5.20;;;9.00;99.90;;;9.84;100.00;100089.13;5035298;28;20041;-79
2021/11/13 09:58:29;;;;;;;6.85;4.82;;;9.10;99.90;;;9.99;100.00;100103.00;5035206;28;20132;-80
2021/11/13 10:00:56;;;;;;;5.85;4.60;;;9.10;99.90;;;9.88;100.00;100095.59;5019316;28;20033;-81
2021/11/13 10:03:23;;;;;;;6.63;4.38;;;9.20;99.90;;;10.12;100.00;100102.84;5038079;28;20056;-82
2021/11/13 10:05:57;;;;;;;5.53;3.78;;;9.30;99.90;;;10.23;100.00;100098.31;5053998;28;20460;-80
2021/11/13 10:08:24;;;;;;;6.18;3.95;;;9.40;99.90;;;10.17;100.00;100108.16;5021729;28;20560;-80
2021/11/13 10:11:05;;;;;;;4.03;3.25;;;9.50;99.90;;;10.46;100.00;100111.16;5073109;28;20107;-78
2021/11/13 10:13:39;;;;;;;8.80;4.03;;;9.60;99.90;;;10.48;100.00;100106.00;5075643;28;20037;-82
2021/11/13 10:16:17;;;;;;;5.35;3.55;;;9.70;99.90;;;10.53;100.00;100104.88;5075295;28;20032;-80
2021/11/13 10:18:51;;;;;;;5.60;3.25;;;9.70;99.90;;;10.40;100.00;100100.66;5074142;28;20032;-80
2021/11/13 10:21:29;;;;;;;5.50;3.80;;;9.70;99.90;;;10.45;100.00;100105.94;5076431;28;20029;-80